sensor_id;sensor_type;location;lat;lon;timestamp;P1;durP1;ratioP1;P2;durP2;ratioP2
76059;SDS011;64759;52.220;5.170;2023-02-15T00:01:55;54.97;;;32.30;;
76059;SDS011;64759;52.220;5.170;2023-02-15T00:04:21;59.58;;;33.15;;
76059;SDS011;64759;52.220;5.170;2023-02-15T00:06:48;56.40;;;32.13;;
76059;SDS011;64759;52.220;5.170;2023-02-15T00:09:13;52.85;;;31.08;;
76059;SDS011;64759;52.220;5.170;2023-02-15T00:11:39;48.20;;;30.63;;
76059;SDS011;64759;52.220;5.170;2023-02-15T00:14:09;51.20;;;30.63;;
76059;SDS011;64759;52.220;5.170;2023-02-15T00:16:37;49.97;;;31.45;;
76059;SDS011;64759;52.220;5.170;2023-02-15T00:19:03;48.30;;;30.73;;
76059;SDS011;64759;52.220;5.170;2023-02-15T00:21:30;53.60;;;31.77;;
76059;SDS011;64759;52.220;5.170;2023-02-15T00:23:57;51.88;;;30.67;;
76059;SDS011;64759;52.220;5.170;2023-02-15T00:26:24;49.85;;;31.20;;
76059;SDS011;64759;52.220;5.170;2023-02-15T00:28:50;49.05;;;31.55;;
76059;SDS011;64759;52.220;5.170;2023-02-15T00:31:15;49.33;;;30.98;;
76059;SDS011;64759;52.220;5.170;2023-02-15T00:33:41;47.20;;;29.20;;
76059;SDS011;64759;52.220;5.170;2023-02-15T00:36:07;49.60;;;29.98;;
76059;SDS011;64759;52.220;5.170;2023-02-15T00:38:34;52.90;;;32.22;;
76059;SDS011;64759;52.220;5.170;2023-02-15T00:41:01;51.10;;;30.48;;
76059;SDS011;64759;52.220;5.170;2023-02-15T00:43:29;46.20;;;30.30;;
76059;SDS011;64759;52.220;5.170;2023-02-15T00:45:55;48.60;;;31.13;;
76059;SDS011;64759;52.220;5.170;2023-02-15T00:48:21;54.75;;;30.95;;
76059;SDS011;64759;52.220;5.170;2023-02-15T00:50:48;55.72;;;30.17;;
76059;SDS011;64759;52.220;5.170;2023-02-15T00:53:15;47.08;;;28.75;;
76059;SDS011;64759;52.220;5.170;2023-02-15T00:55:41;45.45;;;27.85;;
76059;SDS011;64759;52.220;5.170;2023-02-15T00:58:07;48.67;;;29.30;;
76059;SDS011;64759;52.220;5.170;2023-02-15T01:00:33;45.97;;;29.00;;
76059;SDS011;64759;52.220;5.170;2023-02-15T01:02:59;47.85;;;27.10;;
76059;SDS011;64759;52.220;5.170;2023-02-15T01:05:24;49.03;;;29.48;;
76059;SDS011;64759;52.220;5.170;2023-02-15T01:07:49;51.90;;;31.83;;
76059;SDS011;64759;52.220;5.170;2023-02-15T01:10:15;53.05;;;31.88;;
76059;SDS011;64759;52.220;5.170;2023-02-15T01:12:41;56.00;;;33.00;;
76059;SDS011;64759;52.220;5.170;2023-02-15T01:15:07;57.33;;;33.17;;
76059;SDS011;64759;52.220;5.170;2023-02-15T01:17:32;50.65;;;32.60;;
76059;SDS011;64759;52.220;5.170;2023-02-15T01:19:58;44.45;;;29.45;;
76059;SDS011;64759;52.220;5.170;2023-02-15T01:22:24;48.22;;;28.15;;
76059;SDS011;64759;52.220;5.170;2023-02-15T01:24:49;46.88;;;27.52;;
76059;SDS011;64759;52.220;5.170;2023-02-15T01:27:15;45.70;;;27.15;;
76059;SDS011;64759;52.220;5.170;2023-02-15T01:29:42;49.78;;;30.30;;
76059;SDS011;64759;52.220;5.170;2023-02-15T01:32:08;46.17;;;28.30;;
76059;SDS011;64759;52.220;5.170;2023-02-15T01:34:33;47.50;;;28.33;;
76059;SDS011;64759;52.220;5.170;2023-02-15T01:36:58;48.70;;;29.15;;
76059;SDS011;64759;52.220;5.170;2023-02-15T01:39:24;48.85;;;30.45;;
76059;SDS011;64759;52.220;5.170;2023-02-15T01:41:50;45.70;;;27.65;;
76059;SDS011;64759;52.220;5.170;2023-02-15T01:50:04;39.75;;;24.92;;
76059;SDS011;64759;52.220;5.170;2023-02-15T01:52:37;46.60;;;26.42;;
76059;SDS011;64759;52.220;5.170;2023-02-15T01:55:07;47.92;;;28.58;;
76059;SDS011;64759;52.220;5.170;2023-02-15T01:57:34;40.83;;;25.05;;
76059;SDS011;64759;52.220;5.170;2023-02-15T02:00:02;40.53;;;25.95;;
76059;SDS011;64759;52.220;5.170;2023-02-15T02:02:37;39.72;;;25.45;;
76059;SDS011;64759;52.220;5.170;2023-02-15T02:05:04;45.92;;;27.50;;
76059;SDS011;64759;52.220;5.170;2023-02-15T02:07:33;45.58;;;25.35;;
76059;SDS011;64759;52.220;5.170;2023-02-15T02:10:05;46.97;;;28.25;;
76059;SDS011;64759;52.220;5.170;2023-02-15T02:12:33;45.20;;;28.63;;
76059;SDS011;64759;52.220;5.170;2023-02-15T02:15:02;40.80;;;25.85;;
76059;SDS011;64759;52.220;5.170;2023-02-15T02:28:51;45.58;;;26.20;;
76059;SDS011;64759;52.220;5.170;2023-02-15T02:42:35;37.88;;;24.33;;
76059;SDS011;64759;52.220;5.170;2023-02-15T02:45:39;43.28;;;25.30;;
76059;SDS011;64759;52.220;5.170;2023-02-15T02:48:13;41.33;;;25.15;;
76059;SDS011;64759;52.220;5.170;2023-02-15T02:50:41;47.05;;;26.88;;
76059;SDS011;64759;52.220;5.170;2023-02-15T02:53:08;49.13;;;26.20;;
76059;SDS011;64759;52.220;5.170;2023-02-15T02:55:46;42.95;;;24.52;;
76059;SDS011;64759;52.220;5.170;2023-02-15T02:58:39;41.20;;;24.52;;
76059;SDS011;64759;52.220;5.170;2023-02-15T03:01:19;48.42;;;28.30;;
76059;SDS011;64759;52.220;5.170;2023-02-15T03:03:59;37.72;;;23.60;;
76059;SDS011;64759;52.220;5.170;2023-02-15T03:06:36;44.33;;;25.98;;
76059;SDS011;64759;52.220;5.170;2023-02-15T03:09:11;42.28;;;26.55;;
76059;SDS011;64759;52.220;5.170;2023-02-15T03:11:41;47.17;;;25.95;;
76059;SDS011;64759;52.220;5.170;2023-02-15T03:14:09;39.05;;;24.15;;
76059;SDS011;64759;52.220;5.170;2023-02-15T03:16:36;40.28;;;26.60;;
76059;SDS011;64759;52.220;5.170;2023-02-15T03:19:15;47.90;;;27.92;;
76059;SDS011;64759;52.220;5.170;2023-02-15T03:21:49;48.05;;;28.27;;
76059;SDS011;64759;52.220;5.170;2023-02-15T03:24:24;49.08;;;28.52;;
76059;SDS011;64759;52.220;5.170;2023-02-15T03:26:56;45.38;;;27.27;;
76059;SDS011;64759;52.220;5.170;2023-02-15T03:29:24;52.17;;;27.73;;
76059;SDS011;64759;52.220;5.170;2023-02-15T03:31:54;43.70;;;26.05;;
76059;SDS011;64759;52.220;5.170;2023-02-15T03:34:24;44.60;;;26.40;;
76059;SDS011;64759;52.220;5.170;2023-02-15T03:36:57;45.95;;;25.95;;
76059;SDS011;64759;52.220;5.170;2023-02-15T03:39:30;44.63;;;25.25;;
76059;SDS011;64759;52.220;5.170;2023-02-15T03:42:03;41.37;;;24.77;;
76059;SDS011;64759;52.220;5.170;2023-02-15T03:47:34;49.45;;;28.92;;
76059;SDS011;64759;52.220;5.170;2023-02-15T03:50:21;46.30;;;25.38;;
76059;SDS011;64759;52.220;5.170;2023-02-15T03:53:10;47.75;;;26.80;;
76059;SDS011;64759;52.220;5.170;2023-02-15T03:55:39;45.22;;;26.05;;
76059;SDS011;64759;52.220;5.170;2023-02-15T03:58:05;44.33;;;26.80;;
76059;SDS011;64759;52.220;5.170;2023-02-15T04:00:50;44.10;;;25.25;;
76059;SDS011;64759;52.220;5.170;2023-02-15T04:04:01;40.67;;;24.90;;
76059;SDS011;64759;52.220;5.170;2023-02-15T04:06:35;45.80;;;27.55;;
76059;SDS011;64759;52.220;5.170;2023-02-15T04:09:00;43.72;;;26.52;;
76059;SDS011;64759;52.220;5.170;2023-02-15T04:11:44;46.05;;;26.90;;
76059;SDS011;64759;52.220;5.170;2023-02-15T04:14:11;42.38;;;25.77;;
76059;SDS011;64759;52.220;5.170;2023-02-15T04:16:54;44.42;;;24.45;;
76059;SDS011;64759;52.220;5.170;2023-02-15T04:19:20;43.22;;;24.30;;
76059;SDS011;64759;52.220;5.170;2023-02-15T04:22:04;42.85;;;25.45;;
76059;SDS011;64759;52.220;5.170;2023-02-15T04:24:48;38.28;;;23.48;;
76059;SDS011;64759;52.220;5.170;2023-02-15T04:27:31;42.47;;;24.58;;
76059;SDS011;64759;52.220;5.170;2023-02-15T04:29:57;40.17;;;24.63;;
76059;SDS011;64759;52.220;5.170;2023-02-15T04:32:24;39.83;;;23.55;;
76059;SDS011;64759;52.220;5.170;2023-02-15T04:34:49;42.90;;;25.35;;
76059;SDS011;64759;52.220;5.170;2023-02-15T04:37:14;42.83;;;26.17;;
76059;SDS011;64759;52.220;5.170;2023-02-15T04:39:40;41.13;;;25.67;;
76059;SDS011;64759;52.220;5.170;2023-02-15T04:42:06;45.72;;;27.88;;
76059;SDS011;64759;52.220;5.170;2023-02-15T04:44:31;43.83;;;24.85;;
76059;SDS011;64759;52.220;5.170;2023-02-15T04:46:57;42.50;;;24.77;;
76059;SDS011;64759;52.220;5.170;2023-02-15T04:49:22;53.08;;;26.67;;
76059;SDS011;64759;52.220;5.170;2023-02-15T04:51:48;43.88;;;25.08;;
76059;SDS011;64759;52.220;5.170;2023-02-15T04:54:13;48.05;;;28.08;;
76059;SDS011;64759;52.220;5.170;2023-02-15T04:56:39;49.03;;;25.27;;
76059;SDS011;64759;52.220;5.170;2023-02-15T04:59:04;44.17;;;26.40;;
76059;SDS011;64759;52.220;5.170;2023-02-15T05:01:30;45.33;;;26.25;;
76059;SDS011;64759;52.220;5.170;2023-02-15T05:03:56;43.67;;;25.63;;
76059;SDS011;64759;52.220;5.170;2023-02-15T05:06:21;42.45;;;23.83;;
76059;SDS011;64759;52.220;5.170;2023-02-15T05:08:47;42.88;;;26.75;;
76059;SDS011;64759;52.220;5.170;2023-02-15T05:11:12;48.00;;;28.17;;
76059;SDS011;64759;52.220;5.170;2023-02-15T05:13:37;48.35;;;26.95;;
76059;SDS011;64759;52.220;5.170;2023-02-15T05:16:03;52.13;;;28.58;;
76059;SDS011;64759;52.220;5.170;2023-02-15T05:18:28;47.63;;;26.38;;
76059;SDS011;64759;52.220;5.170;2023-02-15T05:20:54;45.53;;;27.33;;
76059;SDS011;64759;52.220;5.170;2023-02-15T05:23:20;40.35;;;24.20;;
76059;SDS011;64759;52.220;5.170;2023-02-15T05:25:48;42.25;;;24.33;;
76059;SDS011;64759;52.220;5.170;2023-02-15T05:28:34;45.42;;;26.10;;
76059;SDS011;64759;52.220;5.170;2023-02-15T05:31:11;45.33;;;26.27;;
76059;SDS011;64759;52.220;5.170;2023-02-15T05:33:44;44.53;;;25.10;;
76059;SDS011;64759;52.220;5.170;2023-02-15T05:36:10;50.47;;;27.80;;
76059;SDS011;64759;52.220;5.170;2023-02-15T05:38:36;40.40;;;25.75;;
76059;SDS011;64759;52.220;5.170;2023-02-15T05:41:03;48.78;;;26.27;;
76059;SDS011;64759;52.220;5.170;2023-02-15T05:43:31;46.90;;;26.23;;
76059;SDS011;64759;52.220;5.170;2023-02-15T05:45:57;41.35;;;26.45;;
76059;SDS011;64759;52.220;5.170;2023-02-15T05:48:24;47.15;;;27.00;;
76059;SDS011;64759;52.220;5.170;2023-02-15T05:51:00;47.28;;;27.60;;
76059;SDS011;64759;52.220;5.170;2023-02-15T05:53:28;43.63;;;26.77;;
76059;SDS011;64759;52.220;5.170;2023-02-15T05:55:55;55.75;;;27.75;;
76059;SDS011;64759;52.220;5.170;2023-02-15T05:58:27;50.10;;;27.98;;
76059;SDS011;64759;52.220;5.170;2023-02-15T06:00:54;51.78;;;28.40;;
76059;SDS011;64759;52.220;5.170;2023-02-15T06:03:20;50.78;;;28.10;;
76059;SDS011;64759;52.220;5.170;2023-02-15T06:05:46;51.28;;;29.55;;
76059;SDS011;64759;52.220;5.170;2023-02-15T06:08:12;47.92;;;28.65;;
76059;SDS011;64759;52.220;5.170;2023-02-15T06:10:37;48.00;;;27.58;;
76059;SDS011;64759;52.220;5.170;2023-02-15T06:13:05;54.97;;;28.88;;
76059;SDS011;64759;52.220;5.170;2023-02-15T06:15:31;51.10;;;29.38;;
76059;SDS011;64759;52.220;5.170;2023-02-15T06:17:56;48.72;;;27.88;;
76059;SDS011;64759;52.220;5.170;2023-02-15T06:20:22;55.08;;;29.17;;
76059;SDS011;64759;52.220;5.170;2023-02-15T06:22:47;52.55;;;30.48;;
76059;SDS011;64759;52.220;5.170;2023-02-15T06:25:12;50.33;;;29.85;;
76059;SDS011;64759;52.220;5.170;2023-02-15T06:27:40;51.40;;;30.13;;
76059;SDS011;64759;52.220;5.170;2023-02-15T06:30:07;51.92;;;29.80;;
76059;SDS011;64759;52.220;5.170;2023-02-15T06:32:34;51.88;;;28.33;;
76059;SDS011;64759;52.220;5.170;2023-02-15T06:35:00;55.45;;;28.70;;
76059;SDS011;64759;52.220;5.170;2023-02-15T06:37:25;56.40;;;30.42;;
76059;SDS011;64759;52.220;5.170;2023-02-15T06:39:51;55.15;;;28.40;;
76059;SDS011;64759;52.220;5.170;2023-02-15T06:42:16;47.95;;;27.85;;
76059;SDS011;64759;52.220;5.170;2023-02-15T06:44:43;51.22;;;29.55;;
76059;SDS011;64759;52.220;5.170;2023-02-15T06:47:08;59.97;;;31.10;;
76059;SDS011;64759;52.220;5.170;2023-02-15T06:49:34;54.47;;;30.75;;
76059;SDS011;64759;52.220;5.170;2023-02-15T06:51:59;56.38;;;30.50;;
76059;SDS011;64759;52.220;5.170;2023-02-15T06:54:25;54.28;;;30.63;;
76059;SDS011;64759;52.220;5.170;2023-02-15T06:56:50;51.33;;;28.30;;
76059;SDS011;64759;52.220;5.170;2023-02-15T06:59:16;58.70;;;31.52;;
76059;SDS011;64759;52.220;5.170;2023-02-15T07:01:41;50.40;;;28.95;;
76059;SDS011;64759;52.220;5.170;2023-02-15T07:04:07;58.33;;;30.33;;
76059;SDS011;64759;52.220;5.170;2023-02-15T07:06:32;56.88;;;31.77;;
76059;SDS011;64759;52.220;5.170;2023-02-15T07:08:59;54.42;;;30.08;;
76059;SDS011;64759;52.220;5.170;2023-02-15T07:11:24;61.70;;;31.25;;
76059;SDS011;64759;52.220;5.170;2023-02-15T07:14:08;53.72;;;30.02;;
76059;SDS011;64759;52.220;5.170;2023-02-15T07:16:34;52.85;;;30.80;;
76059;SDS011;64759;52.220;5.170;2023-02-15T07:18:59;59.60;;;32.25;;
76059;SDS011;64759;52.220;5.170;2023-02-15T07:21:25;55.63;;;32.42;;
76059;SDS011;64759;52.220;5.170;2023-02-15T07:23:50;48.78;;;29.13;;
76059;SDS011;64759;52.220;5.170;2023-02-15T07:26:16;57.40;;;31.67;;
76059;SDS011;64759;52.220;5.170;2023-02-15T07:28:41;49.35;;;30.08;;
76059;SDS011;64759;52.220;5.170;2023-02-15T07:31:06;50.95;;;29.83;;
76059;SDS011;64759;52.220;5.170;2023-02-15T07:33:32;59.05;;;31.65;;
76059;SDS011;64759;52.220;5.170;2023-02-15T07:35:59;64.22;;;33.45;;
76059;SDS011;64759;52.220;5.170;2023-02-15T07:38:29;54.75;;;30.05;;
76059;SDS011;64759;52.220;5.170;2023-02-15T07:41:03;56.87;;;31.80;;
76059;SDS011;64759;52.220;5.170;2023-02-15T07:43:34;54.85;;;30.50;;
76059;SDS011;64759;52.220;5.170;2023-02-15T07:46:02;54.60;;;31.08;;
76059;SDS011;64759;52.220;5.170;2023-02-15T07:48:29;56.78;;;31.58;;
76059;SDS011;64759;52.220;5.170;2023-02-15T07:50:58;55.55;;;30.27;;
76059;SDS011;64759;52.220;5.170;2023-02-15T07:53:24;52.30;;;28.92;;
76059;SDS011;64759;52.220;5.170;2023-02-15T07:55:50;48.83;;;29.55;;
76059;SDS011;64759;52.220;5.170;2023-02-15T07:58:17;55.67;;;30.70;;
76059;SDS011;64759;52.220;5.170;2023-02-15T08:00:43;62.00;;;31.52;;
76059;SDS011;64759;52.220;5.170;2023-02-15T08:05:54;47.40;;;29.17;;
76059;SDS011;64759;52.220;5.170;2023-02-15T08:08:21;56.10;;;30.75;;
76059;SDS011;64759;52.220;5.170;2023-02-15T08:13:52;58.15;;;31.73;;
76059;SDS011;64759;52.220;5.170;2023-02-15T08:19:02;56.58;;;30.08;;
76059;SDS011;64759;52.220;5.170;2023-02-15T08:21:32;58.90;;;32.20;;
76059;SDS011;64759;52.220;5.170;2023-02-15T08:23:59;58.97;;;31.50;;
76059;SDS011;64759;52.220;5.170;2023-02-15T08:26:24;56.25;;;32.25;;
76059;SDS011;64759;52.220;5.170;2023-02-15T08:28:52;52.90;;;31.55;;
76059;SDS011;64759;52.220;5.170;2023-02-15T08:31:18;55.30;;;32.75;;
76059;SDS011;64759;52.220;5.170;2023-02-15T08:33:44;55.25;;;31.92;;
76059;SDS011;64759;52.220;5.170;2023-02-15T08:36:17;56.92;;;33.25;;
76059;SDS011;64759;52.220;5.170;2023-02-15T08:38:44;55.17;;;32.88;;
76059;SDS011;64759;52.220;5.170;2023-02-15T08:41:18;49.83;;;29.23;;
76059;SDS011;64759;52.220;5.170;2023-02-15T08:43:48;58.25;;;33.17;;
76059;SDS011;64759;52.220;5.170;2023-02-15T08:46:16;51.20;;;30.33;;
76059;SDS011;64759;52.220;5.170;2023-02-15T08:48:42;54.58;;;32.35;;
76059;SDS011;64759;52.220;5.170;2023-02-15T08:51:15;56.88;;;32.28;;
76059;SDS011;64759;52.220;5.170;2023-02-15T08:53:46;52.90;;;32.17;;
76059;SDS011;64759;52.220;5.170;2023-02-15T08:56:16;55.78;;;32.00;;
76059;SDS011;64759;52.220;5.170;2023-02-15T08:58:43;49.08;;;31.27;;
76059;SDS011;64759;52.220;5.170;2023-02-15T09:01:09;55.15;;;30.30;;
76059;SDS011;64759;52.220;5.170;2023-02-15T09:03:37;46.78;;;28.95;;
76059;SDS011;64759;52.220;5.170;2023-02-15T09:06:03;53.40;;;31.85;;
76059;SDS011;64759;52.220;5.170;2023-02-15T09:08:29;51.42;;;29.67;;
76059;SDS011;64759;52.220;5.170;2023-02-15T09:11:03;51.00;;;30.17;;
76059;SDS011;64759;52.220;5.170;2023-02-15T09:13:30;49.88;;;29.98;;
76059;SDS011;64759;52.220;5.170;2023-02-15T09:15:59;45.55;;;28.58;;
76059;SDS011;64759;52.220;5.170;2023-02-15T09:18:25;45.38;;;29.23;;
76059;SDS011;64759;52.220;5.170;2023-02-15T09:20:51;49.15;;;27.77;;
76059;SDS011;64759;52.220;5.170;2023-02-15T09:23:16;47.17;;;30.08;;
76059;SDS011;64759;52.220;5.170;2023-02-15T09:25:42;45.85;;;27.73;;
76059;SDS011;64759;52.220;5.170;2023-02-15T09:28:07;43.90;;;29.52;;
76059;SDS011;64759;52.220;5.170;2023-02-15T09:30:33;43.88;;;27.42;;
76059;SDS011;64759;52.220;5.170;2023-02-15T09:32:59;45.10;;;29.23;;
76059;SDS011;64759;52.220;5.170;2023-02-15T09:35:24;44.50;;;28.98;;
76059;SDS011;64759;52.220;5.170;2023-02-15T09:37:50;55.53;;;29.60;;
76059;SDS011;64759;52.220;5.170;2023-02-15T09:40:15;48.30;;;30.23;;
76059;SDS011;64759;52.220;5.170;2023-02-15T09:43:07;46.65;;;28.80;;
76059;SDS011;64759;52.220;5.170;2023-02-15T09:48:41;42.78;;;28.17;;
76059;SDS011;64759;52.220;5.170;2023-02-15T09:54:17;47.45;;;29.02;;
76059;SDS011;64759;52.220;5.170;2023-02-15T09:56:48;41.05;;;26.63;;
76059;SDS011;64759;52.220;5.170;2023-02-15T10:14:03;43.95;;;28.25;;
76059;SDS011;64759;52.220;5.170;2023-02-15T10:16:51;40.67;;;27.23;;
76059;SDS011;64759;52.220;5.170;2023-02-15T10:19:44;45.05;;;27.73;;
76059;SDS011;64759;52.220;5.170;2023-02-15T10:22:37;49.70;;;29.17;;
76059;SDS011;64759;52.220;5.170;2023-02-15T10:25:15;48.63;;;29.33;;
76059;SDS011;64759;52.220;5.170;2023-02-15T10:27:59;45.13;;;28.42;;
76059;SDS011;64759;52.220;5.170;2023-02-15T10:30:48;45.63;;;27.88;;
76059;SDS011;64759;52.220;5.170;2023-02-15T10:46:27;42.95;;;26.48;;
76059;SDS011;64759;52.220;5.170;2023-02-15T10:57:41;43.70;;;24.40;;
76059;SDS011;64759;52.220;5.170;2023-02-15T11:03:20;39.53;;;26.13;;
76059;SDS011;64759;52.220;5.170;2023-02-15T11:06:16;45.08;;;27.88;;
76059;SDS011;64759;52.220;5.170;2023-02-15T11:08:50;37.75;;;25.27;;
76059;SDS011;64759;52.220;5.170;2023-02-15T11:13:54;42.70;;;27.10;;
76059;SDS011;64759;52.220;5.170;2023-02-15T11:16:26;45.50;;;28.27;;
76059;SDS011;64759;52.220;5.170;2023-02-15T11:18:58;47.17;;;28.88;;
76059;SDS011;64759;52.220;5.170;2023-02-15T11:21:36;46.95;;;29.65;;
76059;SDS011;64759;52.220;5.170;2023-02-15T11:24:13;41.05;;;27.63;;
76059;SDS011;64759;52.220;5.170;2023-02-15T11:29:21;43.65;;;28.33;;
76059;SDS011;64759;52.220;5.170;2023-02-15T11:31:54;48.45;;;30.98;;
76059;SDS011;64759;52.220;5.170;2023-02-15T11:34:35;42.38;;;29.17;;
76059;SDS011;64759;52.220;5.170;2023-02-15T11:37:24;49.63;;;30.35;;
76059;SDS011;64759;52.220;5.170;2023-02-15T11:39:59;51.88;;;31.17;;
76059;SDS011;64759;52.220;5.170;2023-02-15T11:42:28;49.38;;;31.08;;
76059;SDS011;64759;52.220;5.170;2023-02-15T11:45:02;50.13;;;32.05;;
76059;SDS011;64759;52.220;5.170;2023-02-15T11:47:42;51.40;;;31.00;;
76059;SDS011;64759;52.220;5.170;2023-02-15T11:50:13;47.97;;;30.00;;
76059;SDS011;64759;52.220;5.170;2023-02-15T11:52:41;53.30;;;32.25;;
76059;SDS011;64759;52.220;5.170;2023-02-15T11:55:11;55.80;;;31.15;;
76059;SDS011;64759;52.220;5.170;2023-02-15T11:57:41;52.63;;;32.13;;
76059;SDS011;64759;52.220;5.170;2023-02-15T12:00:31;54.47;;;32.90;;
76059;SDS011;64759;52.220;5.170;2023-02-15T12:03:14;52.30;;;32.92;;
76059;SDS011;64759;52.220;5.170;2023-02-15T12:05:45;48.58;;;31.25;;
76059;SDS011;64759;52.220;5.170;2023-02-15T12:08:18;54.78;;;29.20;;
76059;SDS011;64759;52.220;5.170;2023-02-15T12:10:56;54.08;;;31.63;;
76059;SDS011;64759;52.220;5.170;2023-02-15T12:13:32;52.13;;;30.77;;
76059;SDS011;64759;52.220;5.170;2023-02-15T12:15:58;54.65;;;31.65;;
76059;SDS011;64759;52.220;5.170;2023-02-15T12:20:59;53.13;;;32.60;;
76059;SDS011;64759;52.220;5.170;2023-02-15T12:23:28;58.05;;;32.53;;
76059;SDS011;64759;52.220;5.170;2023-02-15T12:25:55;48.80;;;33.13;;
76059;SDS011;64759;52.220;5.170;2023-02-15T12:28:27;55.20;;;34.33;;
76059;SDS011;64759;52.220;5.170;2023-02-15T12:30:55;57.38;;;33.65;;
76059;SDS011;64759;52.220;5.170;2023-02-15T12:33:29;54.28;;;33.70;;
76059;SDS011;64759;52.220;5.170;2023-02-15T12:36:15;53.60;;;32.88;;
76059;SDS011;64759;52.220;5.170;2023-02-15T12:38:43;54.40;;;32.38;;
76059;SDS011;64759;52.220;5.170;2023-02-15T12:41:29;53.13;;;32.85;;
76059;SDS011;64759;52.220;5.170;2023-02-15T12:44:06;56.35;;;33.88;;
76059;SDS011;64759;52.220;5.170;2023-02-15T12:46:40;56.00;;;33.10;;
76059;SDS011;64759;52.220;5.170;2023-02-15T12:51:46;53.38;;;32.63;;
76059;SDS011;64759;52.220;5.170;2023-02-15T12:56:58;56.67;;;34.13;;
76059;SDS011;64759;52.220;5.170;2023-02-15T12:59:24;55.72;;;34.25;;
76059;SDS011;64759;52.220;5.170;2023-02-15T13:01:51;58.80;;;34.67;;
76059;SDS011;64759;52.220;5.170;2023-02-15T13:04:21;52.88;;;33.45;;
76059;SDS011;64759;52.220;5.170;2023-02-15T13:06:50;55.03;;;34.83;;
76059;SDS011;64759;52.220;5.170;2023-02-15T13:09:26;59.13;;;35.58;;
76059;SDS011;64759;52.220;5.170;2023-02-15T13:14:43;57.92;;;36.42;;
76059;SDS011;64759;52.220;5.170;2023-02-15T13:17:10;48.58;;;32.40;;
76059;SDS011;64759;52.220;5.170;2023-02-15T13:19:43;53.90;;;34.70;;
76059;SDS011;64759;52.220;5.170;2023-02-15T13:22:16;49.70;;;34.35;;
76059;SDS011;64759;52.220;5.170;2023-02-15T13:24:48;61.05;;;35.15;;
76059;SDS011;64759;52.220;5.170;2023-02-15T13:27:19;59.10;;;33.95;;
76059;SDS011;64759;52.220;5.170;2023-02-15T13:29:51;55.47;;;35.25;;
76059;SDS011;64759;52.220;5.170;2023-02-15T13:34:56;53.78;;;35.35;;
76059;SDS011;64759;52.220;5.170;2023-02-15T13:42:56;56.58;;;36.30;;
76059;SDS011;64759;52.220;5.170;2023-02-15T13:45:33;57.97;;;35.13;;
76059;SDS011;64759;52.220;5.170;2023-02-15T13:56:12;52.05;;;32.95;;
76059;SDS011;64759;52.220;5.170;2023-02-15T14:05:05;61.28;;;37.88;;
76059;SDS011;64759;52.220;5.170;2023-02-15T14:19:26;52.40;;;34.13;;
76059;SDS011;64759;52.220;5.170;2023-02-15T14:22:08;58.97;;;35.17;;
76059;SDS011;64759;52.220;5.170;2023-02-15T14:30:44;52.85;;;34.03;;
76059;SDS011;64759;52.220;5.170;2023-02-15T14:36:06;55.13;;;34.78;;
76059;SDS011;64759;52.220;5.170;2023-02-15T14:41:22;53.60;;;35.55;;
76059;SDS011;64759;52.220;5.170;2023-02-15T14:46:48;57.60;;;35.72;;
76059;SDS011;64759;52.220;5.170;2023-02-15T14:49:21;52.38;;;33.58;;
76059;SDS011;64759;52.220;5.170;2023-02-15T14:56:44;58.80;;;34.72;;
76059;SDS011;64759;52.220;5.170;2023-02-15T14:59:20;55.83;;;34.05;;
76059;SDS011;64759;52.220;5.170;2023-02-15T15:02:00;54.50;;;34.88;;
76059;SDS011;64759;52.220;5.170;2023-02-15T15:04:38;54.53;;;32.95;;
76059;SDS011;64759;52.220;5.170;2023-02-15T15:07:17;58.03;;;36.50;;
76059;SDS011;64759;52.220;5.170;2023-02-15T15:09:48;61.13;;;36.13;;
76059;SDS011;64759;52.220;5.170;2023-02-15T15:14:50;60.90;;;36.70;;
76059;SDS011;64759;52.220;5.170;2023-02-15T15:20:12;58.80;;;36.85;;
76059;SDS011;64759;52.220;5.170;2023-02-15T15:22:42;53.38;;;36.05;;
76059;SDS011;64759;52.220;5.170;2023-02-15T15:25:09;61.28;;;37.00;;
76059;SDS011;64759;52.220;5.170;2023-02-15T15:27:55;59.30;;;36.40;;
76059;SDS011;64759;52.220;5.170;2023-02-15T15:41:48;60.53;;;37.25;;
76059;SDS011;64759;52.220;5.170;2023-02-15T15:50:32;61.10;;;35.55;;
76059;SDS011;64759;52.220;5.170;2023-02-15T15:52:58;66.03;;;36.92;;
76059;SDS011;64759;52.220;5.170;2023-02-15T15:55:26;65.07;;;38.58;;
76059;SDS011;64759;52.220;5.170;2023-02-15T15:58:02;60.22;;;36.63;;
76059;SDS011;64759;52.220;5.170;2023-02-15T16:03:14;63.13;;;36.85;;
76059;SDS011;64759;52.220;5.170;2023-02-15T16:08:06;60.33;;;36.90;;
76059;SDS011;64759;52.220;5.170;2023-02-15T16:10:32;61.97;;;37.85;;
76059;SDS011;64759;52.220;5.170;2023-02-15T16:12:59;58.38;;;36.85;;
76059;SDS011;64759;52.220;5.170;2023-02-15T16:15:43;69.15;;;38.75;;
76059;SDS011;64759;52.220;5.170;2023-02-15T16:18:14;60.65;;;36.45;;
76059;SDS011;64759;52.220;5.170;2023-02-15T16:20:42;61.15;;;37.90;;
76059;SDS011;64759;52.220;5.170;2023-02-15T16:23:21;62.38;;;38.28;;
76059;SDS011;64759;52.220;5.170;2023-02-15T16:26:13;59.60;;;35.67;;
76059;SDS011;64759;52.220;5.170;2023-02-15T16:28:52;58.50;;;38.25;;
76059;SDS011;64759;52.220;5.170;2023-02-15T16:31:19;68.85;;;39.08;;
76059;SDS011;64759;52.220;5.170;2023-02-15T16:33:47;62.08;;;39.67;;
76059;SDS011;64759;52.220;5.170;2023-02-15T16:36:20;68.80;;;40.80;;
76059;SDS011;64759;52.220;5.170;2023-02-15T16:41:16;70.32;;;40.30;;
76059;SDS011;64759;52.220;5.170;2023-02-15T16:43:47;62.45;;;39.35;;
76059;SDS011;64759;52.220;5.170;2023-02-15T16:46:25;60.63;;;38.72;;
76059;SDS011;64759;52.220;5.170;2023-02-15T16:48:53;61.67;;;36.60;;
76059;SDS011;64759;52.220;5.170;2023-02-15T16:51:22;65.85;;;40.13;;
76059;SDS011;64759;52.220;5.170;2023-02-15T16:53:50;75.22;;;41.95;;
76059;SDS011;64759;52.220;5.170;2023-02-15T16:56:17;72.55;;;42.92;;
76059;SDS011;64759;52.220;5.170;2023-02-15T16:58:49;67.93;;;39.70;;
76059;SDS011;64759;52.220;5.170;2023-02-15T17:01:16;70.00;;;41.17;;
76059;SDS011;64759;52.220;5.170;2023-02-15T17:06:26;70.13;;;39.33;;
76059;SDS011;64759;52.220;5.170;2023-02-15T17:09:02;67.13;;;39.28;;
76059;SDS011;64759;52.220;5.170;2023-02-15T17:11:34;62.28;;;39.40;;
76059;SDS011;64759;52.220;5.170;2023-02-15T17:21:56;67.68;;;39.92;;
76059;SDS011;64759;52.220;5.170;2023-02-15T17:24:44;70.55;;;37.63;;
76059;SDS011;64759;52.220;5.170;2023-02-15T17:27:14;68.28;;;39.63;;
76059;SDS011;64759;52.220;5.170;2023-02-15T17:29:59;68.97;;;39.40;;
76059;SDS011;64759;52.220;5.170;2023-02-15T17:32:28;64.47;;;40.17;;
76059;SDS011;64759;52.220;5.170;2023-02-15T17:35:01;67.47;;;40.38;;
76059;SDS011;64759;52.220;5.170;2023-02-15T17:37:43;63.35;;;38.80;;
76059;SDS011;64759;52.220;5.170;2023-02-15T17:40:26;62.42;;;36.95;;
76059;SDS011;64759;52.220;5.170;2023-02-15T17:42:57;66.90;;;39.50;;
76059;SDS011;64759;52.220;5.170;2023-02-15T17:45:24;67.20;;;39.70;;
76059;SDS011;64759;52.220;5.170;2023-02-15T17:47:52;66.85;;;40.47;;
76059;SDS011;64759;52.220;5.170;2023-02-15T17:50:19;67.40;;;40.10;;
76059;SDS011;64759;52.220;5.170;2023-02-15T17:52:49;82.60;;;45.83;;
76059;SDS011;64759;52.220;5.170;2023-02-15T17:55:17;75.10;;;43.72;;
76059;SDS011;64759;52.220;5.170;2023-02-15T17:57:59;67.10;;;40.35;;